sensor_id;sensor_type;location;lat;lon;timestamp;temperature;humidity
30399;DHT22;17195;50.838;7.214;2022-07-30T00:01:23;16.80;99.90
30399;DHT22;17195;50.838;7.214;2022-07-30T00:03:48;16.70;99.90
30399;DHT22;17195;50.838;7.214;2022-07-30T00:06:14;16.60;99.90
30399;DHT22;17195;50.838;7.214;2022-07-30T00:08:39;16.60;99.90
30399;DHT22;17195;50.838;7.214;2022-07-30T00:11:05;16.50;99.90
30399;DHT22;17195;50.838;7.214;2022-07-30T00:13:30;16.50;99.90
30399;DHT22;17195;50.838;7.214;2022-07-30T00:15:56;16.50;99.90
30399;DHT22;17195;50.838;7.214;2022-07-30T00:18:21;16.40;99.90
30399;DHT22;17195;50.838;7.214;2022-07-30T00:20:47;16.40;99.90
30399;DHT22;17195;50.838;7.214;2022-07-30T00:23:13;16.40;99.90
30399;DHT22;17195;50.838;7.214;2022-07-30T00:25:38;16.30;99.90
30399;DHT22;17195;50.838;7.214;2022-07-30T00:28:04;16.30;99.90
30399;DHT22;17195;50.838;7.214;2022-07-30T00:30:29;16.30;99.90
30399;DHT22;17195;50.838;7.214;2022-07-30T00:32:55;16.20;99.90
30399;DHT22;17195;50.838;7.214;2022-07-30T00:35:21;16.10;99.90
30399;DHT22;17195;50.838;7.214;2022-07-30T00:37:46;16.10;99.90
30399;DHT22;17195;50.838;7.214;2022-07-30T00:40:12;16.10;99.90
30399;DHT22;17195;50.838;7.214;2022-07-30T00:42:39;16.00;99.90
30399;DHT22;17195;50.838;7.214;2022-07-30T00:45:06;16.00;99.90
30399;DHT22;17195;50.838;7.214;2022-07-30T00:47:32;16.00;99.90
30399;DHT22;17195;50.838;7.214;2022-07-30T00:49:57;15.90;99.90
30399;DHT22;17195;50.838;7.214;2022-07-30T00:52:23;15.80;99.90
30399;DHT22;17195;50.838;7.214;2022-07-30T00:54:48;15.80;99.90
30399;DHT22;17195;50.838;7.214;2022-07-30T00:57:14;15.80;99.90
30399;DHT22;17195;50.838;7.214;2022-07-30T00:59:40;15.80;99.90
30399;DHT22;17195;50.838;7.214;2022-07-30T01:02:06;15.70;99.90
30399;DHT22;17195;50.838;7.214;2022-07-30T01:04:31;15.70;99.90
30399;DHT22;17195;50.838;7.214;2022-07-30T01:06:57;15.60;99.90
30399;DHT22;17195;50.838;7.214;2022-07-30T01:09:22;15.60;99.90
30399;DHT22;17195;50.838;7.214;2022-07-30T01:11:48;15.50;99.90
30399;DHT22;17195;50.838;7.214;2022-07-30T01:14:14;15.50;99.90
30399;DHT22;17195;50.838;7.214;2022-07-30T01:16:41;15.50;99.90
30399;DHT22;17195;50.838;7.214;2022-07-30T01:19:16;15.40;99.90
30399;DHT22;17195;50.838;7.214;2022-07-30T01:24:43;15.40;99.90
30399;DHT22;17195;50.838;7.214;2022-07-30T01:27:13;15.30;99.90
30399;DHT22;17195;50.838;7.214;2022-07-30T01:29:40;15.30;99.90
30399;DHT22;17195;50.838;7.214;2022-07-30T01:32:08;15.30;99.90
30399;DHT22;17195;50.838;7.214;2022-07-30T01:34:36;15.30;99.90
30399;DHT22;17195;50.838;7.214;2022-07-30T01:37:04;15.30;99.90
30399;DHT22;17195;50.838;7.214;2022-07-30T01:39:32;15.20;99.90
30399;DHT22;17195;50.838;7.214;2022-07-30T01:41:59;15.10;99.90
30399;DHT22;17195;50.838;7.214;2022-07-30T01:44:30;15.10;99.90
30399;DHT22;17195;50.838;7.214;2022-07-30T01:46:56;15.00;99.90
30399;DHT22;17195;50.838;7.214;2022-07-30T01:49:23;14.90;99.90
30399;DHT22;17195;50.838;7.214;2022-07-30T01:51:50;14.90;99.90
30399;DHT22;17195;50.838;7.214;2022-07-30T01:54:17;14.90;99.90
30399;DHT22;17195;50.838;7.214;2022-07-30T01:56:45;14.90;99.90
30399;DHT22;17195;50.838;7.214;2022-07-30T01:59:11;14.80;99.90
30399;DHT22;17195;50.838;7.214;2022-07-30T02:01:38;14.80;99.90
30399;DHT22;17195;50.838;7.214;2022-07-30T02:04:03;14.80;99.90
30399;DHT22;17195;50.838;7.214;2022-07-30T02:06:55;14.70;99.90
30399;DHT22;17195;50.838;7.214;2022-07-30T02:09:28;14.70;99.90
30399;DHT22;17195;50.838;7.214;2022-07-30T02:11:55;14.70;99.90
30399;DHT22;17195;50.838;7.214;2022-07-30T02:14:48;14.70;99.90
30399;DHT22;17195;50.838;7.214;2022-07-30T02:17:20;14.60;99.90
30399;DHT22;17195;50.838;7.214;2022-07-30T02:19:50;14.60;99.90
30399;DHT22;17195;50.838;7.214;2022-07-30T02:22:18;14.60;99.90
30399;DHT22;17195;50.838;7.214;2022-07-30T02:24:45;14.60;99.90
30399;DHT22;17195;50.838;7.214;2022-07-30T02:27:17;14.50;99.90
30399;DHT22;17195;50.838;7.214;2022-07-30T02:29:45;14.50;99.90
30399;DHT22;17195;50.838;7.214;2022-07-30T02:32:14;14.50;99.90
30399;DHT22;17195;50.838;7.214;2022-07-30T02:34:42;14.40;99.90
30399;DHT22;17195;50.838;7.214;2022-07-30T02:37:10;14.40;99.90
30399;DHT22;17195;50.838;7.214;2022-07-30T02:39:37;14.40;99.90
30399;DHT22;17195;50.838;7.214;2022-07-30T02:42:04;14.40;99.90
30399;DHT22;17195;50.838;7.214;2022-07-30T02:44:31;14.30;99.90
30399;DHT22;17195;50.838;7.214;2022-07-30T02:46:58;14.30;99.90
30399;DHT22;17195;50.838;7.214;2022-07-30T02:49:25;14.30;99.90
30399;DHT22;17195;50.838;7.214;2022-07-30T02:51:52;14.20;99.90
30399;DHT22;17195;50.838;7.214;2022-07-30T02:54:19;14.20;99.90
30399;DHT22;17195;50.838;7.214;2022-07-30T02:56:46;14.20;99.90
30399;DHT22;17195;50.838;7.214;2022-07-30T02:59:13;14.10;99.90
30399;DHT22;17195;50.838;7.214;2022-07-30T03:01:40;14.10;99.90
30399;DHT22;17195;50.838;7.214;2022-07-30T03:04:07;14.00;99.90
30399;DHT22;17195;50.838;7.214;2022-07-30T03:06:34;14.00;99.90
30399;DHT22;17195;50.838;7.214;2022-07-30T03:09:01;14.00;99.90
30399;DHT22;17195;50.838;7.214;2022-07-30T03:11:28;14.00;99.90
30399;DHT22;17195;50.838;7.214;2022-07-30T03:13:55;14.00;99.90
30399;DHT22;17195;50.838;7.214;2022-07-30T03:16:22;13.90;99.90
30399;DHT22;17195;50.838;7.214;2022-07-30T03:18:50;13.90;99.90
30399;DHT22;17195;50.838;7.214;2022-07-30T03:21:18;13.90;99.90
30399;DHT22;17195;50.838;7.214;2022-07-30T03:23:45;13.90;99.90
30399;DHT22;17195;50.838;7.214;2022-07-30T03:26:12;13.90;99.90
30399;DHT22;17195;50.838;7.214;2022-07-30T03:28:39;13.80;99.90
30399;DHT22;17195;50.838;7.214;2022-07-30T03:31:06;13.80;99.90
30399;DHT22;17195;50.838;7.214;2022-07-30T03:33:34;13.80;99.90
30399;DHT22;17195;50.838;7.214;2022-07-30T03:36:01;13.80;99.90
30399;DHT22;17195;50.838;7.214;2022-07-30T03:38:28;13.80;99.90
30399;DHT22;17195;50.838;7.214;2022-07-30T03:40:54;13.80;99.90
30399;DHT22;17195;50.838;7.214;2022-07-30T03:43:21;13.80;99.90
30399;DHT22;17195;50.838;7.214;2022-07-30T03:45:47;13.80;99.90
30399;DHT22;17195;50.838;7.214;2022-07-30T03:48:14;13.80;99.90
30399;DHT22;17195;50.838;7.214;2022-07-30T03:50:41;13.70;99.90
30399;DHT22;17195;50.838;7.214;2022-07-30T03:53:08;13.70;99.90
30399;DHT22;17195;50.838;7.214;2022-07-30T03:55:34;13.70;99.90
30399;DHT22;17195;50.838;7.214;2022-07-30T03:58:02;13.70;99.90
30399;DHT22;17195;50.838;7.214;2022-07-30T04:00:28;13.70;99.90
30399;DHT22;17195;50.838;7.214;2022-07-30T04:02:54;13.70;99.90
30399;DHT22;17195;50.838;7.214;2022-07-30T04:05:20;13.60;99.90
30399;DHT22;17195;50.838;7.214;2022-07-30T04:07:46;13.60;99.90
30399;DHT22;17195;50.838;7.214;2022-07-30T04:10:13;13.70;99.90
30399;DHT22;17195;50.838;7.214;2022-07-30T04:12:39;13.70;99.90
30399;DHT22;17195;50.838;7.214;2022-07-30T04:15:05;13.70;99.90
30399;DHT22;17195;50.838;7.214;2022-07-30T04:17:35;13.70;99.90
30399;DHT22;17195;50.838;7.214;2022-07-30T04:20:28;13.70;99.90
30399;DHT22;17195;50.838;7.214;2022-07-30T04:22:52;13.70;99.90
30399;DHT22;17195;50.838;7.214;2022-07-30T04:25:19;13.70;99.90
30399;DHT22;17195;50.838;7.214;2022-07-30T04:27:47;13.80;99.90
30399;DHT22;17195;50.838;7.214;2022-07-30T04:30:12;13.80;99.90
30399;DHT22;17195;50.838;7.214;2022-07-30T04:32:38;13.90;99.90
30399;DHT22;17195;50.838;7.214;2022-07-30T04:35:04;13.90;99.90
30399;DHT22;17195;50.838;7.214;2022-07-30T04:37:30;14.00;99.90
30399;DHT22;17195;50.838;7.214;2022-07-30T04:39:55;14.00;99.90
30399;DHT22;17195;50.838;7.214;2022-07-30T04:42:26;14.10;99.90
30399;DHT22;17195;50.838;7.214;2022-07-30T04:44:52;14.20;99.90
30399;DHT22;17195;50.838;7.214;2022-07-30T04:47:18;14.20;99.90
30399;DHT22;17195;50.838;7.214;2022-07-30T04:49:45;14.20;99.90
30399;DHT22;17195;50.838;7.214;2022-07-30T04:52:13;14.30;99.90
30399;DHT22;17195;50.838;7.214;2022-07-30T04:54:57;14.40;99.90
30399;DHT22;17195;50.838;7.214;2022-07-30T04:57:24;14.50;99.90
30399;DHT22;17195;50.838;7.214;2022-07-30T04:59:50;14.50;99.90
30399;DHT22;17195;50.838;7.214;2022-07-30T05:02:18;14.60;99.90
30399;DHT22;17195;50.838;7.214;2022-07-30T05:04:46;14.70;99.90
30399;DHT22;17195;50.838;7.214;2022-07-30T05:07:13;14.80;99.90
30399;DHT22;17195;50.838;7.214;2022-07-30T05:09:39;14.90;99.90
30399;DHT22;17195;50.838;7.214;2022-07-30T05:12:05;15.00;99.90
30399;DHT22;17195;50.838;7.214;2022-07-30T05:14:31;15.10;99.90
30399;DHT22;17195;50.838;7.214;2022-07-30T05:16:57;15.10;99.90
30399;DHT22;17195;50.838;7.214;2022-07-30T05:19:22;15.10;99.90
30399;DHT22;17195;50.838;7.214;2022-07-30T05:21:48;15.20;99.90
30399;DHT22;17195;50.838;7.214;2022-07-30T05:24:14;15.30;99.90
30399;DHT22;17195;50.838;7.214;2022-07-30T05:26:39;15.40;99.90
30399;DHT22;17195;50.838;7.214;2022-07-30T05:29:05;15.50;99.90
30399;DHT22;17195;50.838;7.214;2022-07-30T05:31:30;15.60;99.90
30399;DHT22;17195;50.838;7.214;2022-07-30T05:33:56;15.70;99.90
30399;DHT22;17195;50.838;7.214;2022-07-30T05:36:22;15.70;99.90
30399;DHT22;17195;50.838;7.214;2022-07-30T05:38:48;15.90;99.90
30399;DHT22;17195;50.838;7.214;2022-07-30T05:41:13;15.90;99.90
30399;DHT22;17195;50.838;7.214;2022-07-30T05:43:39;16.00;99.90
30399;DHT22;17195;50.838;7.214;2022-07-30T05:46:05;16.10;99.90
30399;DHT22;17195;50.838;7.214;2022-07-30T05:48:30;16.20;99.90
30399;DHT22;17195;50.838;7.214;2022-07-30T05:51:02;16.30;99.90
30399;DHT22;17195;50.838;7.214;2022-07-30T05:53:28;16.40;99.90
30399;DHT22;17195;50.838;7.214;2022-07-30T05:55:53;16.50;99.90
30399;DHT22;17195;50.838;7.214;2022-07-30T05:58:19;16.60;99.90
30399;DHT22;17195;50.838;7.214;2022-07-30T06:00:45;16.70;99.90
30399;DHT22;17195;50.838;7.214;2022-07-30T06:03:10;16.90;99.90
30399;DHT22;17195;50.838;7.214;2022-07-30T06:05:36;17.00;99.90
30399;DHT22;17195;50.838;7.214;2022-07-30T06:08:02;17.10;99.90
30399;DHT22;17195;50.838;7.214;2022-07-30T06:10:28;17.20;99.90
30399;DHT22;17195;50.838;7.214;2022-07-30T06:12:54;17.30;99.90
30399;DHT22;17195;50.838;7.214;2022-07-30T06:15:20;17.40;99.90
30399;DHT22;17195;50.838;7.214;2022-07-30T06:17:46;17.50;99.90
30399;DHT22;17195;50.838;7.214;2022-07-30T06:20:13;17.60;99.90
30399;DHT22;17195;50.838;7.214;2022-07-30T06:22:39;17.70;99.90
30399;DHT22;17195;50.838;7.214;2022-07-30T06:25:06;17.80;99.90
30399;DHT22;17195;50.838;7.214;2022-07-30T06:27:32;18.00;99.90
30399;DHT22;17195;50.838;7.214;2022-07-30T06:30:05;18.00;99.90
30399;DHT22;17195;50.838;7.214;2022-07-30T06:32:32;18.00;99.90
30399;DHT22;17195;50.838;7.214;2022-07-30T06:34:57;18.00;99.90
30399;DHT22;17195;50.838;7.214;2022-07-30T06:37:23;18.10;99.90
30399;DHT22;17195;50.838;7.214;2022-07-30T06:39:49;18.20;99.90
30399;DHT22;17195;50.838;7.214;2022-07-30T06:42:14;18.20;99.90
30399;DHT22;17195;50.838;7.214;2022-07-30T06:44:40;18.30;99.90
30399;DHT22;17195;50.838;7.214;2022-07-30T06:47:06;18.40;99.90
30399;DHT22;17195;50.838;7.214;2022-07-30T06:49:32;18.50;99.90
30399;DHT22;17195;50.838;7.214;2022-07-30T06:51:58;18.60;99.90
30399;DHT22;17195;50.838;7.214;2022-07-30T06:54:24;18.60;99.90
30399;DHT22;17195;50.838;7.214;2022-07-30T06:56:49;18.70;99.90
30399;DHT22;17195;50.838;7.214;2022-07-30T06:59:15;18.80;99.90
30399;DHT22;17195;50.838;7.214;2022-07-30T07:01:41;18.90;99.90
30399;DHT22;17195;50.838;7.214;2022-07-30T07:04:06;18.90;99.90
30399;DHT22;17195;50.838;7.214;2022-07-30T07:06:32;18.90;99.90
30399;DHT22;17195;50.838;7.214;2022-07-30T07:08:57;19.00;99.90
30399;DHT22;17195;50.838;7.214;2022-07-30T07:11:23;19.00;99.90
30399;DHT22;17195;50.838;7.214;2022-07-30T07:13:50;19.10;99.90
30399;DHT22;17195;50.838;7.214;2022-07-30T07:16:15;19.20;99.90
30399;DHT22;17195;50.838;7.214;2022-07-30T07:18:41;19.30;99.90
30399;DHT22;17195;50.838;7.214;2022-07-30T07:21:07;19.40;99.90
30399;DHT22;17195;50.838;7.214;2022-07-30T07:23:33;19.40;99.90
30399;DHT22;17195;50.838;7.214;2022-07-30T07:25:59;19.50;99.90
30399;DHT22;17195;50.838;7.214;2022-07-30T07:28:25;19.70;99.90
30399;DHT22;17195;50.838;7.214;2022-07-30T07:30:50;19.70;99.90
30399;DHT22;17195;50.838;7.214;2022-07-30T07:33:16;19.70;99.90
30399;DHT22;17195;50.838;7.214;2022-07-30T07:35:42;19.80;99.90
30399;DHT22;17195;50.838;7.214;2022-07-30T07:38:07;19.90;99.90
30399;DHT22;17195;50.838;7.214;2022-07-30T07:40:33;20.10;99.90
30399;DHT22;17195;50.838;7.214;2022-07-30T07:42:58;20.20;99.90
30399;DHT22;17195;50.838;7.214;2022-07-30T07:45:24;20.10;99.90
30399;DHT22;17195;50.838;7.214;2022-07-30T07:47:49;20.10;99.90
30399;DHT22;17195;50.838;7.214;2022-07-30T07:50:17;20.10;99.90
30399;DHT22;17195;50.838;7.214;2022-07-30T07:52:43;20.30;99.90
30399;DHT22;17195;50.838;7.214;2022-07-30T07:55:09;20.40;99.90
30399;DHT22;17195;50.838;7.214;2022-07-30T07:57:39;20.50;99.90
30399;DHT22;17195;50.838;7.214;2022-07-30T08:00:06;20.40;99.90
30399;DHT22;17195;50.838;7.214;2022-07-30T08:02:31;20.40;99.90
30399;DHT22;17195;50.838;7.214;2022-07-30T08:04:57;20.50;99.90
30399;DHT22;17195;50.838;7.214;2022-07-30T08:07:22;20.50;99.90
30399;DHT22;17195;50.838;7.214;2022-07-30T08:09:48;20.70;99.90
30399;DHT22;17195;50.838;7.214;2022-07-30T08:12:13;20.80;99.90
30399;DHT22;17195;50.838;7.214;2022-07-30T08:14:39;20.90;99.90
30399;DHT22;17195;50.838;7.214;2022-07-30T08:17:05;20.80;99.90
30399;DHT22;17195;50.838;7.214;2022-07-30T08:19:30;20.90;99.90
30399;DHT22;17195;50.838;7.214;2022-07-30T08:21:56;20.80;99.90
30399;DHT22;17195;50.838;7.214;2022-07-30T08:24:23;20.80;99.90
30399;DHT22;17195;50.838;7.214;2022-07-30T08:26:49;20.70;99.90
30399;DHT22;17195;50.838;7.214;2022-07-30T08:29:14;20.60;99.90
30399;DHT22;17195;50.838;7.214;2022-07-30T08:31:40;20.70;99.90
30399;DHT22;17195;50.838;7.214;2022-07-30T08:34:05;20.60;99.90
30399;DHT22;17195;50.838;7.214;2022-07-30T08:36:31;20.60;99.90
30399;DHT22;17195;50.838;7.214;2022-07-30T08:38:57;20.70;99.90
30399;DHT22;17195;50.838;7.214;2022-07-30T08:41:23;20.70;99.90
30399;DHT22;17195;50.838;7.214;2022-07-30T08:43:50;20.80;99.90
30399;DHT22;17195;50.838;7.214;2022-07-30T08:46:17;20.80;99.90
30399;DHT22;17195;50.838;7.214;2022-07-30T08:48:43;20.90;99.90
30399;DHT22;17195;50.838;7.214;2022-07-30T08:51:08;21.10;99.90
30399;DHT22;17195;50.838;7.214;2022-07-30T08:53:34;21.10;99.90
30399;DHT22;17195;50.838;7.214;2022-07-30T08:56:01;21.10;99.90
30399;DHT22;17195;50.838;7.214;2022-07-30T08:58:29;21.10;99.90
30399;DHT22;17195;50.838;7.214;2022-07-30T09:00:56;21.10;99.90
30399;DHT22;17195;50.838;7.214;2022-07-30T09:03:22;21.30;99.90
30399;DHT22;17195;50.838;7.214;2022-07-30T09:05:48;21.50;99.90
30399;DHT22;17195;50.838;7.214;2022-07-30T09:08:13;21.50;99.90
30399;DHT22;17195;50.838;7.214;2022-07-30T09:10:39;21.50;99.90
30399;DHT22;17195;50.838;7.214;2022-07-30T09:13:28;21.50;99.90
30399;DHT22;17195;50.838;7.214;2022-07-30T09:15:55;21.50;99.90
30399;DHT22;17195;50.838;7.214;2022-07-30T09:18:33;21.50;99.90
30399;DHT22;17195;50.838;7.214;2022-07-30T09:21:00;21.60;99.90
30399;DHT22;17195;50.838;7.214;2022-07-30T09:23:27;21.60;99.90
30399;DHT22;17195;50.838;7.214;2022-07-30T09:25:53;21.80;99.90
30399;DHT22;17195;50.838;7.214;2022-07-30T09:28:28;21.80;99.90
30399;DHT22;17195;50.838;7.214;2022-07-30T09:30:55;21.90;99.90
30399;DHT22;17195;50.838;7.214;2022-07-30T09:36:00;22.20;99.90
30399;DHT22;17195;50.838;7.214;2022-07-30T09:38:26;22.20;99.90
30399;DHT22;17195;50.838;7.214;2022-07-30T09:40:54;22.20;99.90
30399;DHT22;17195;50.838;7.214;2022-07-30T09:43:20;22.20;99.90
30399;DHT22;17195;50.838;7.214;2022-07-30T09:46:03;22.00;99.90
30399;DHT22;17195;50.838;7.214;2022-07-30T09:48:29;22.10;99.90
30399;DHT22;17195;50.838;7.214;2022-07-30T09:50:55;22.10;99.90
30399;DHT22;17195;50.838;7.214;2022-07-30T09:53:21;22.20;99.90
30399;DHT22;17195;50.838;7.214;2022-07-30T09:55:47;22.50;99.90
30399;DHT22;17195;50.838;7.214;2022-07-30T09:58:13;22.70;99.90
30399;DHT22;17195;50.838;7.214;2022-07-30T10:00:41;22.80;99.90
30399;DHT22;17195;50.838;7.214;2022-07-30T10:03:19;23.00;99.90
30399;DHT22;17195;50.838;7.214;2022-07-30T10:05:57;23.20;99.90
30399;DHT22;17195;50.838;7.214;2022-07-30T10:08:40;23.30;99.90
30399;DHT22;17195;50.838;7.214;2022-07-30T10:11:18;23.30;99.90
30399;DHT22;17195;50.838;7.214;2022-07-30T10:13:46;23.50;99.90
30399;DHT22;17195;50.838;7.214;2022-07-30T10:16:13;23.60;99.90
30399;DHT22;17195;50.838;7.214;2022-07-30T10:18:41;23.70;99.90
30399;DHT22;17195;50.838;7.214;2022-07-30T10:21:07;23.80;99.90
30399;DHT22;17195;50.838;7.214;2022-07-30T10:23:34;24.00;99.90
30399;DHT22;17195;50.838;7.214;2022-07-30T10:25:59;24.20;99.90
30399;DHT22;17195;50.838;7.214;2022-07-30T10:28:27;24.40;99.90
30399;DHT22;17195;50.838;7.214;2022-07-30T10:30:54;24.50;99.90
30399;DHT22;17195;50.838;7.214;2022-07-30T10:33:25;24.70;99.90
30399;DHT22;17195;50.838;7.214;2022-07-30T10:35:51;24.40;99.90
30399;DHT22;17195;50.838;7.214;2022-07-30T10:38:21;24.40;99.90
30399;DHT22;17195;50.838;7.214;2022-07-30T10:49:14;24.10;99.90
30399;DHT22;17195;50.838;7.214;2022-07-30T10:51:48;24.00;99.90
30399;DHT22;17195;50.838;7.214;2022-07-30T10:57:09;24.10;99.90
30399;DHT22;17195;50.838;7.214;2022-07-30T11:02:21;24.30;99.30
30399;DHT22;17195;50.838;7.214;2022-07-30T11:04:47;24.20;98.10
30399;DHT22;17195;50.838;7.214;2022-07-30T11:10:03;24.40;98.60
30399;DHT22;17195;50.838;7.214;2022-07-30T11:12:51;24.80;98.90
30399;DHT22;17195;50.838;7.214;2022-07-30T11:15:17;24.70;97.70
30399;DHT22;17195;50.838;7.214;2022-07-30T11:20:29;24.30;97.60
30399;DHT22;17195;50.838;7.214;2022-07-30T11:23:08;24.20;97.70
30399;DHT22;17195;50.838;7.214;2022-07-30T11:28:00;24.50;96.40
30399;DHT22;17195;50.838;7.214;2022-07-30T11:35:31;24.70;92.00
30399;DHT22;17195;50.838;7.214;2022-07-30T11:40:33;24.80;90.40
30399;DHT22;17195;50.838;7.214;2022-07-30T11:45:51;25.10;89.10
30399;DHT22;17195;50.838;7.214;2022-07-30T11:48:18;25.30;90.60
30399;DHT22;17195;50.838;7.214;2022-07-30T11:50:45;25.50;90.80
30399;DHT22;17195;50.838;7.214;2022-07-30T11:53:19;25.50;90.10
30399;DHT22;17195;50.838;7.214;2022-07-30T11:56:05;25.50;86.60
30399;DHT22;17195;50.838;7.214;2022-07-30T11:58:32;25.60;82.10
30399;DHT22;17195;50.838;7.214;2022-07-30T12:01:02;25.70;77.50
30399;DHT22;17195;50.838;7.214;2022-07-30T12:03:29;25.80;74.50
30399;DHT22;17195;50.838;7.214;2022-07-30T12:06:06;25.90;75.80
30399;DHT22;17195;50.838;7.214;2022-07-30T12:08:42;26.00;75.20
30399;DHT22;17195;50.838;7.214;2022-07-30T12:11:07;26.20;73.40
30399;DHT22;17195;50.838;7.214;2022-07-30T12:13:33;26.30;73.10
30399;DHT22;17195;50.838;7.214;2022-07-30T12:15:59;26.60;73.00
30399;DHT22;17195;50.838;7.214;2022-07-30T12:18:27;26.80;72.10
30399;DHT22;17195;50.838;7.214;2022-07-30T12:21:00;26.80;69.60
30399;DHT22;17195;50.838;7.214;2022-07-30T12:23:28;26.90;68.70
30399;DHT22;17195;50.838;7.214;2022-07-30T12:25:54;26.60;68.10
30399;DHT22;17195;50.838;7.214;2022-07-30T12:28:22;26.60;68.70
30399;DHT22;17195;50.838;7.214;2022-07-30T12:30:49;26.50;68.20
30399;DHT22;17195;50.838;7.214;2022-07-30T12:33:15;26.60;69.00
30399;DHT22;17195;50.838;7.214;2022-07-30T12:35:45;26.70;68.50
30399;DHT22;17195;50.838;7.214;2022-07-30T12:38:12;26.90;69.70
30399;DHT22;17195;50.838;7.214;2022-07-30T12:41:02;27.00;67.60
30399;DHT22;17195;50.838;7.214;2022-07-30T12:43:44;27.10;67.80
30399;DHT22;17195;50.838;7.214;2022-07-30T12:46:11;27.20;67.90
30399;DHT22;17195;50.838;7.214;2022-07-30T12:48:37;27.30;67.30
30399;DHT22;17195;50.838;7.214;2022-07-30T12:51:07;27.30;65.40
30399;DHT22;17195;50.838;7.214;2022-07-30T12:53:33;27.40;65.20
30399;DHT22;17195;50.838;7.214;2022-07-30T12:56:16;27.40;64.70
30399;DHT22;17195;50.838;7.214;2022-07-30T12:58:44;27.50;66.10
30399;DHT22;17195;50.838;7.214;2022-07-30T13:01:10;27.50;66.20
30399;DHT22;17195;50.838;7.214;2022-07-30T13:03:36;27.60;63.90
30399;DHT22;17195;50.838;7.214;2022-07-30T13:06:19;27.70;62.10
30399;DHT22;17195;50.838;7.214;2022-07-30T13:08:54;27.70;61.30
30399;DHT22;17195;50.838;7.214;2022-07-30T13:11:22;27.80;61.40
30399;DHT22;17195;50.838;7.214;2022-07-30T13:13:49;27.80;61.60
30399;DHT22;17195;50.838;7.214;2022-07-30T13:16:15;27.50;62.20
30399;DHT22;17195;50.838;7.214;2022-07-30T13:18:41;27.20;60.60
30399;DHT22;17195;50.838;7.214;2022-07-30T13:21:07;27.30;60.90
30399;DHT22;17195;50.838;7.214;2022-07-30T13:23:37;27.50;60.30
30399;DHT22;17195;50.838;7.214;2022-07-30T13:26:03;27.60;61.70
30399;DHT22;17195;50.838;7.214;2022-07-30T13:28:29;27.80;63.80
30399;DHT22;17195;50.838;7.214;2022-07-30T13:30:56;28.00;62.40
30399;DHT22;17195;50.838;7.214;2022-07-30T13:33:22;28.10;61.20
30399;DHT22;17195;50.838;7.214;2022-07-30T13:35:47;28.20;60.90
30399;DHT22;17195;50.838;7.214;2022-07-30T13:38:13;28.50;60.70
30399;DHT22;17195;50.838;7.214;2022-07-30T13:40:40;28.70;60.00
30399;DHT22;17195;50.838;7.214;2022-07-30T13:43:06;28.70;60.50
30399;DHT22;17195;50.838;7.214;2022-07-30T13:45:31;29.00;60.50
30399;DHT22;17195;50.838;7.214;2022-07-30T13:47:57;28.60;59.60
30399;DHT22;17195;50.838;7.214;2022-07-30T13:50:23;28.80;59.20
30399;DHT22;17195;50.838;7.214;2022-07-30T13:52:48;28.90;59.60
30399;DHT22;17195;50.838;7.214;2022-07-30T13:55:14;29.20;59.60
30399;DHT22;17195;50.838;7.214;2022-07-30T13:57:39;29.60;58.30
30399;DHT22;17195;50.838;7.214;2022-07-30T14:00:06;30.10;58.40
30399;DHT22;17195;50.838;7.214;2022-07-30T14:02:33;30.70;57.10
30399;DHT22;17195;50.838;7.214;2022-07-30T14:04:58;30.50;56.90
30399;DHT22;17195;50.838;7.214;2022-07-30T14:07:24;30.50;56.80
30399;DHT22;17195;50.838;7.214;2022-07-30T14:09:50;30.30;57.30
30399;DHT22;17195;50.838;7.214;2022-07-30T14:12:15;30.10;57.10
30399;DHT22;17195;50.838;7.214;2022-07-30T14:14:41;29.70;57.10
30399;DHT22;17195;50.838;7.214;2022-07-30T14:17:06;29.30;57.50
30399;DHT22;17195;50.838;7.214;2022-07-30T14:19:32;29.00;57.00
30399;DHT22;17195;50.838;7.214;2022-07-30T14:21:58;28.90;57.50
30399;DHT22;17195;50.838;7.214;2022-07-30T14:24:23;29.40;57.20
30399;DHT22;17195;50.838;7.214;2022-07-30T14:26:49;29.70;57.60
30399;DHT22;17195;50.838;7.214;2022-07-30T14:29:15;30.10;56.60
30399;DHT22;17195;50.838;7.214;2022-07-30T14:31:42;30.20;56.90
30399;DHT22;17195;50.838;7.214;2022-07-30T14:34:07;29.90;57.10
30399;DHT22;17195;50.838;7.214;2022-07-30T14:36:33;30.10;56.70
30399;DHT22;17195;50.838;7.214;2022-07-30T14:38:59;30.50;55.20
30399;DHT22;17195;50.838;7.214;2022-07-30T14:41:28;30.50;54.90
30399;DHT22;17195;50.838;7.214;2022-07-30T14:43:54;30.10;54.90
30399;DHT22;17195;50.838;7.214;2022-07-30T14:46:19;30.10;55.00
30399;DHT22;17195;50.838;7.214;2022-07-30T14:48:45;30.30;54.70
30399;DHT22;17195;50.838;7.214;2022-07-30T14:51:10;30.50;54.50
30399;DHT22;17195;50.838;7.214;2022-07-30T14:53:36;30.80;53.90
30399;DHT22;17195;50.838;7.214;2022-07-30T14:56:02;30.80;54.60
30399;DHT22;17195;50.838;7.214;2022-07-30T14:58:27;31.00;54.40
30399;DHT22;17195;50.838;7.214;2022-07-30T15:00:53;30.70;54.40
30399;DHT22;17195;50.838;7.214;2022-07-30T15:03:19;30.90;54.20
30399;DHT22;17195;50.838;7.214;2022-07-30T15:05:44;31.10;54.90
30399;DHT22;17195;50.838;7.214;2022-07-30T15:08:10;31.20;54.20
30399;DHT22;17195;50.838;7.214;2022-07-30T15:10:36;31.90;53.60
30399;DHT22;17195;50.838;7.214;2022-07-30T15:13:03;31.90;52.30
30399;DHT22;17195;50.838;7.214;2022-07-30T15:15:28;32.20;52.50
30399;DHT22;17195;50.838;7.214;2022-07-30T15:17:54;33.00;51.60
30399;DHT22;17195;50.838;7.214;2022-07-30T15:20:20;33.50;50.30
30399;DHT22;17195;50.838;7.214;2022-07-30T15:22:45;33.60;49.40
30399;DHT22;17195;50.838;7.214;2022-07-30T15:25:11;33.80;49.00
30399;DHT22;17195;50.838;7.214;2022-07-30T15:27:36;34.70;48.50
30399;DHT22;17195;50.838;7.214;2022-07-30T15:30:03;36.60;46.30
30399;DHT22;17195;50.838;7.214;2022-07-30T15:32:29;39.70;42.80
30399;DHT22;17195;50.838;7.214;2022-07-30T15:34:54;42.00;38.30
30399;DHT22;17195;50.838;7.214;2022-07-30T15:37:20;44.30;34.20
30399;DHT22;17195;50.838;7.214;2022-07-30T15:39:46;46.30;30.40
30399;DHT22;17195;50.838;7.214;2022-07-30T15:42:11;46.10;28.60
30399;DHT22;17195;50.838;7.214;2022-07-30T15:44:37;46.80;27.70
30399;DHT22;17195;50.838;7.214;2022-07-30T15:47:02;47.70;26.10
30399;DHT22;17195;50.838;7.214;2022-07-30T15:49:28;48.00;25.70
30399;DHT22;17195;50.838;7.214;2022-07-30T15:51:54;46.60;25.40
30399;DHT22;17195;50.838;7.214;2022-07-30T15:54:20;46.40;25.80
30399;DHT22;17195;50.838;7.214;2022-07-30T15:56:49;47.70;25.20
30399;DHT22;17195;50.838;7.214;2022-07-30T15:59:15;48.80;24.70
30399;DHT22;17195;50.838;7.214;2022-07-30T16:01:41;50.00;23.50
30399;DHT22;17195;50.838;7.214;2022-07-30T16:04:08;50.40;22.80
30399;DHT22;17195;50.838;7.214;2022-07-30T16:06:33;51.30;22.80
30399;DHT22;17195;50.838;7.214;2022-07-30T16:09:01;52.10;21.60